createdAt,value
2023-07-25T00:02:12.251Z,99089.59
2023-07-25T00:04:40.638Z,99086.69
2023-07-25T00:07:09.184Z,99091.66
2023-07-25T00:09:37.630Z,99089.34
2023-07-25T00:12:07.903Z,99093.09
2023-07-25T00:14:37.185Z,99076.94
2023-07-25T00:17:06.123Z,99060.59
2023-07-25T00:19:34.452Z,99070.38
2023-07-25T00:22:03.448Z,99076.72
2023-07-25T00:24:32.054Z,99071.56
2023-07-25T00:27:00.482Z,99077.16
2023-07-25T00:29:30.272Z,99086.78
2023-07-25T00:31:58.627Z,99075.81
2023-07-25T00:34:27.322Z,99082.13
2023-07-25T00:36:55.787Z,99090.06
2023-07-25T00:39:24.276Z,99077.44
2023-07-25T00:41:52.696Z,99089.47
2023-07-25T00:44:21.291Z,99080.69
2023-07-25T00:46:51.092Z,99078.13
2023-07-25T00:49:19.480Z,99071.59
2023-07-25T00:51:47.955Z,99074.13
2023-07-25T00:54:16.553Z,99068.31
2023-07-25T00:56:45.273Z,99054.25
2023-07-25T00:59:13.885Z,99062.22
2023-07-25T01:01:42.297Z,99060.13
2023-07-25T01:04:12.355Z,99060.94
2023-07-25T01:06:41.523Z,99058.22
2023-07-25T01:09:09.953Z,99061.72
2023-07-25T01:11:38.305Z,99059.47
2023-07-25T01:14:06.788Z,99054.22
2023-07-25T01:16:37.245Z,99059.88
2023-07-25T01:19:05.725Z,99059.41
2023-07-25T01:21:35.673Z,99048.59
2023-07-25T01:24:05.713Z,99034.03
2023-07-25T01:26:34.512Z,99021.63
2023-07-25T01:29:03.027Z,99028.88
2023-07-25T01:31:31.613Z,99029.16
2023-07-25T01:34:00.223Z,99027.75
2023-07-25T01:36:28.652Z,99028.66
2023-07-25T01:38:57.556Z,99029.50
2023-07-25T01:41:27.301Z,99020.72
2023-07-25T01:43:55.828Z,99024.69
2023-07-25T01:46:24.372Z,99033.56
2023-07-25T01:48:52.701Z,99036.75
2023-07-25T01:51:21.156Z,99034.03
2023-07-25T01:53:49.550Z,99020.91
2023-07-25T01:56:17.842Z,99019.28
2023-07-25T01:58:48.222Z,99018.34
2023-07-25T02:01:16.663Z,99036.94
2023-07-25T02:03:45.298Z,99047.38
2023-07-25T02:06:13.778Z,99046.84
2023-07-25T02:08:42.203Z,99050.03
2023-07-25T02:11:11.207Z,99044.06
2023-07-25T02:13:39.908Z,99045.22
2023-07-25T02:16:09.981Z,99046.38
2023-07-25T02:18:38.574Z,99052.97
2023-07-25T02:21:26.887Z,99048.28
2023-07-25T02:23:55.279Z,99048.50
2023-07-25T02:26:23.695Z,99041.34
2023-07-25T02:28:52.327Z,99039.34
2023-07-25T02:31:22.203Z,99036.13
2023-07-25T02:33:50.652Z,99035.53
2023-07-25T02:36:19.173Z,99033.25
2023-07-25T02:38:47.558Z,99038.19
2023-07-25T02:41:16.505Z,99047.78
2023-07-25T02:43:44.946Z,99034.91
2023-07-25T02:46:13.307Z,99042.59
2023-07-25T02:48:43.161Z,99041.00
2023-07-25T02:51:11.624Z,99035.00
2023-07-25T02:53:39.946Z,99031.34
2023-07-25T02:56:08.306Z,99038.38
2023-07-25T02:58:36.758Z,99038.75
2023-07-25T03:01:05.617Z,99044.56
2023-07-25T03:03:33.992Z,99048.28
2023-07-25T03:06:03.862Z,99057.38
2023-07-25T03:08:32.244Z,99065.38
2023-07-25T03:11:00.616Z,99073.16
2023-07-25T03:13:29.581Z,99074.81
2023-07-25T03:15:58.016Z,99079.34
2023-07-25T03:18:26.561Z,99091.84
2023-07-25T03:20:55.038Z,99079.09
2023-07-25T03:23:24.856Z,99074.38
2023-07-25T03:25:53.441Z,99072.47
2023-07-25T03:28:22.005Z,99072.00
2023-07-25T03:30:50.376Z,99068.91
2023-07-25T03:33:19.255Z,99073.09
2023-07-25T03:35:47.811Z,99058.66
2023-07-25T03:38:16.202Z,99067.16
2023-07-25T03:40:46.125Z,99065.03
2023-07-25T03:43:14.978Z,99054.97
2023-07-25T03:45:43.958Z,99059.31
2023-07-25T03:48:12.577Z,99053.09
2023-07-25T03:50:41.148Z,99055.09
2023-07-25T03:53:10.986Z,99053.13
2023-07-25T03:55:39.529Z,99062.25
2023-07-25T03:58:09.385Z,99054.53
2023-07-25T04:00:37.836Z,99069.53
2023-07-25T04:03:15.057Z,99063.13
2023-07-25T04:05:44.675Z,99069.66
2023-07-25T04:08:13.204Z,99062.84
2023-07-25T04:10:41.572Z,99060.03
2023-07-25T04:13:11.442Z,99068.94
2023-07-25T04:15:39.803Z,99064.91
2023-07-25T04:18:08.792Z,99059.28
2023-07-25T04:20:37.302Z,99066.56
2023-07-25T04:23:05.712Z,99045.66
2023-07-25T04:25:34.261Z,99040.91
2023-07-25T04:28:02.753Z,99024.06
2023-07-25T04:30:32.572Z,99033.63
2023-07-25T04:33:00.930Z,99035.28
2023-07-25T04:35:29.440Z,99029.78
2023-07-25T04:37:58.327Z,99033.97
2023-07-25T04:40:27.472Z,99034.97
2023-07-25T04:42:55.940Z,99037.28
2023-07-25T04:45:24.343Z,99038.53
2023-07-25T04:47:54.122Z,99026.38
2023-07-25T04:50:23.233Z,99029.50
2023-07-25T04:52:51.606Z,99039.50
2023-07-25T04:55:20.014Z,99036.19
2023-07-25T04:57:48.677Z,99028.97
2023-07-25T05:00:17.396Z,99030.97
2023-07-25T05:02:45.945Z,99022.22
2023-07-25T05:05:15.861Z,99032.31
2023-07-25T05:07:44.237Z,99035.28
2023-07-25T05:10:13.368Z,99026.56
2023-07-25T05:12:41.898Z,99012.97
2023-07-25T05:15:10.599Z,99020.50
2023-07-25T05:17:39.000Z,99027.16
2023-07-25T05:20:09.008Z,99026.59
2023-07-25T05:22:38.938Z,99028.97
2023-07-25T05:25:07.915Z,99039.91
2023-07-25T05:27:36.528Z,99035.88
2023-07-25T05:30:05.492Z,99033.66
2023-07-25T05:32:36.359Z,99026.59
2023-07-25T05:35:06.500Z,99028.31
2023-07-25T05:37:40.174Z,99035.91
2023-07-25T05:40:09.554Z,99033.91
2023-07-25T05:42:38.510Z,99031.94
2023-07-25T05:45:07.976Z,99034.09
2023-07-25T05:47:36.451Z,99037.19
2023-07-25T05:50:04.982Z,99019.72
2023-07-25T05:52:33.780Z,99030.41
2023-07-25T05:55:04.289Z,99032.47
2023-07-25T05:57:33.560Z,99021.38
2023-07-25T06:00:01.954Z,99021.38
2023-07-25T06:02:34.324Z,99022.34
2023-07-25T06:05:03.002Z,99032.03
2023-07-25T06:07:32.040Z,99021.50
2023-07-25T06:10:00.490Z,99025.53
2023-07-25T06:12:30.278Z,99033.41
2023-07-25T06:14:59.159Z,99027.88
2023-07-25T06:17:27.712Z,99021.31
2023-07-25T06:19:56.081Z,99024.38
2023-07-25T06:22:24.770Z,99027.47
2023-07-25T06:24:53.349Z,99027.25
2023-07-25T06:27:24.367Z,99032.31
2023-07-25T06:29:56.408Z,99037.34
2023-07-25T06:32:25.524Z,99037.91
2023-07-25T06:34:54.097Z,99033.50
2023-07-25T06:37:22.543Z,99035.53
2023-07-25T06:39:50.921Z,99032.03
2023-07-25T06:42:19.486Z,99029.56
2023-07-25T06:44:47.957Z,99040.94
2023-07-25T06:47:17.958Z,99037.72
2023-07-25T06:49:46.360Z,99031.59
2023-07-25T06:52:14.996Z,99027.94
2023-07-25T06:54:44.787Z,99026.56
2023-07-25T06:57:13.503Z,99033.72
2023-07-25T06:59:42.618Z,99030.25
2023-07-25T07:02:11.382Z,99028.72
2023-07-25T07:04:41.343Z,99035.75
2023-07-25T07:07:09.998Z,99039.19
2023-07-25T07:09:38.607Z,99030.19
2023-07-25T07:12:08.185Z,99043.88
2023-07-25T07:14:37.241Z,99047.31
2023-07-25T07:17:06.246Z,99040.00
2023-07-25T07:19:37.179Z,99051.06
2023-07-25T07:22:07.401Z,99040.44
2023-07-25T07:24:36.027Z,99033.28
2023-07-25T07:27:05.107Z,99042.47
2023-07-25T07:29:33.610Z,99035.66
2023-07-25T07:32:04.461Z,99038.09
2023-07-25T07:34:33.322Z,99040.84
2023-07-25T07:37:01.875Z,99048.75
2023-07-25T07:39:31.865Z,99052.22
2023-07-25T07:42:00.468Z,99041.84
2023-07-25T07:44:28.984Z,99044.84
2023-07-25T07:46:57.910Z,99042.66
2023-07-25T07:49:26.528Z,99035.59
2023-07-25T07:52:11.611Z,99038.91
2023-07-25T07:54:45.254Z,99041.56
2023-07-25T07:57:13.740Z,99053.09
2023-07-25T07:59:45.029Z,99051.53
2023-07-25T08:02:14.203Z,99043.28
2023-07-25T08:04:42.765Z,99046.25
2023-07-25T08:07:11.299Z,99045.72
2023-07-25T08:09:39.865Z,99049.06
2023-07-25T08:12:10.679Z,99052.31
2023-07-25T08:14:39.271Z,99051.44
2023-07-25T08:17:07.860Z,99043.56
2023-07-25T08:19:36.324Z,99044.72
2023-07-25T08:22:05.708Z,99049.78
2023-07-25T08:24:34.464Z,99052.44
2023-07-25T08:27:03.199Z,99053.97
2023-07-25T08:29:33.265Z,99044.41
2023-07-25T08:32:01.816Z,99055.22
2023-07-25T08:34:30.937Z,99052.78
2023-07-25T08:36:59.877Z,99054.22
2023-07-25T08:39:28.678Z,99047.88
2023-07-25T08:41:57.966Z,99054.50
2023-07-25T08:44:28.229Z,99053.91
2023-07-25T08:46:58.699Z,99058.00
2023-07-25T08:49:30.578Z,99053.94
2023-07-25T08:52:01.141Z,99069.34
2023-07-25T08:54:33.350Z,99066.47
2023-07-25T08:57:03.283Z,99072.53
2023-07-25T08:59:32.548Z,99061.94
2023-07-25T09:02:03.551Z,99065.16
2023-07-25T09:04:32.931Z,99074.88
2023-07-25T09:07:02.405Z,99068.41
2023-07-25T09:09:31.026Z,99062.00
2023-07-25T09:11:59.799Z,99066.09
2023-07-25T09:14:28.293Z,99063.44
2023-07-25T09:16:56.937Z,99066.72
2023-07-25T09:19:26.944Z,99059.19
2023-07-25T09:21:58.331Z,99072.06
2023-07-25T09:24:37.801Z,99066.75
2023-07-25T09:27:07.632Z,99065.69
2023-07-25T09:29:40.045Z,99079.16
2023-07-25T09:32:20.090Z,99076.94
2023-07-25T09:34:55.777Z,99065.72
2023-07-25T09:37:24.348Z,99059.81
2023-07-25T09:39:53.118Z,99059.50
2023-07-25T09:42:23.439Z,99056.25
2023-07-25T09:44:53.460Z,99040.84
2023-07-25T09:47:26.003Z,99044.44
2023-07-25T09:49:58.040Z,99040.09
2023-07-25T09:52:26.602Z,99042.25
2023-07-25T09:54:55.569Z,99038.22
2023-07-25T09:57:24.287Z,99032.38
2023-07-25T09:59:54.103Z,99031.69
2023-07-25T10:02:22.645Z,99033.56
2023-07-25T10:04:52.165Z,99038.44
2023-07-25T10:07:25.189Z,99037.25
2023-07-25T10:09:54.541Z,99029.66
2023-07-25T10:12:23.007Z,99034.47
2023-07-25T10:14:51.562Z,99040.97
2023-07-25T10:17:20.191Z,99035.94
2023-07-25T10:19:50.205Z,99030.56
2023-07-25T10:22:19.184Z,99034.38
2023-07-25T10:24:49.268Z,99033.16
2023-07-25T10:27:18.117Z,99029.50
2023-07-25T10:29:48.025Z,99038.53
2023-07-25T10:32:17.342Z,99039.81
2023-07-25T10:34:48.387Z,99048.69
2023-07-25T10:37:32.225Z,99047.09
2023-07-25T10:40:12.603Z,99047.16
2023-07-25T10:42:59.826Z,99039.00
2023-07-25T10:45:51.222Z,99035.94
2023-07-25T10:48:30.898Z,99041.63
2023-07-25T10:51:00.013Z,99035.25
2023-07-25T10:53:28.475Z,99043.84
2023-07-25T10:56:17.709Z,99039.84
2023-07-25T10:59:13.807Z,99026.88
2023-07-25T11:01:46.793Z,99032.16
2023-07-25T11:04:23.269Z,99028.78
2023-07-25T11:06:52.480Z,99043.13
2023-07-25T11:09:22.499Z,99038.31
2023-07-25T11:11:54.465Z,99040.75
2023-07-25T11:14:23.956Z,99044.00
2023-07-25T11:16:54.729Z,99046.44
2023-07-25T11:19:30.066Z,99035.84
2023-07-25T11:21:58.822Z,99037.41
2023-07-25T11:24:26.431Z,99034.56
2023-07-25T11:26:56.911Z,99040.97
2023-07-25T11:29:26.077Z,99040.69
2023-07-25T11:31:54.532Z,99041.03
2023-07-25T11:34:23.487Z,99032.78
2023-07-25T11:36:52.018Z,99037.19
2023-07-25T11:39:20.714Z,99032.97
2023-07-25T11:41:50.159Z,99038.41
2023-07-25T11:44:22.244Z,99036.94
2023-07-25T11:46:53.446Z,99030.66
2023-07-25T11:49:40.161Z,99021.69
2023-07-25T11:52:12.317Z,99019.81
2023-07-25T11:54:41.057Z,99022.22
2023-07-25T11:57:12.200Z,99030.78
2023-07-25T11:59:45.737Z,99022.31
2023-07-25T12:02:14.800Z,99023.28
2023-07-25T12:04:46.884Z,99016.41
2023-07-25T12:07:15.601Z,99011.91
2023-07-25T12:09:52.802Z,99011.59
2023-07-25T12:12:22.439Z,99013.34
2023-07-25T12:14:59.922Z,99009.25
2023-07-25T12:17:44.805Z,99003.56
2023-07-25T12:20:17.739Z,99006.91
2023-07-25T12:22:46.046Z,99009.44
2023-07-25T12:25:18.838Z,99007.03
2023-07-25T12:27:50.071Z,99001.38
2023-07-25T12:30:20.588Z,98995.66
2023-07-25T12:32:49.580Z,98992.38
2023-07-25T12:35:18.675Z,98997.19
2023-07-25T12:37:47.298Z,99003.63
2023-07-25T12:40:15.970Z,98996.09
2023-07-25T12:42:46.673Z,98988.72
2023-07-25T12:45:15.336Z,98996.72
2023-07-25T12:47:45.508Z,98998.50
2023-07-25T12:50:15.141Z,98997.22
2023-07-25T12:52:44.281Z,99006.19
2023-07-25T12:55:13.052Z,99007.56
2023-07-25T12:57:41.960Z,99010.47
2023-07-25T13:00:11.330Z,99003.69
2023-07-25T13:02:40.546Z,98994.50
2023-07-25T13:05:10.905Z,98991.38
2023-07-25T13:07:39.533Z,98990.44
2023-07-25T13:10:11.722Z,98987.19
2023-07-25T13:12:40.870Z,98981.63
2023-07-25T13:15:10.638Z,98986.81
2023-07-25T13:17:39.292Z,98992.97
2023-07-25T13:20:10.335Z,98983.84
2023-07-25T13:22:39.517Z,98980.66
2023-07-25T13:25:08.708Z,98982.28
2023-07-25T13:27:37.482Z,98989.22
2023-07-25T13:30:06.936Z,98984.66
2023-07-25T13:32:35.422Z,98987.78
2023-07-25T13:35:04.098Z,98993.16
2023-07-25T13:37:34.686Z,98984.56
2023-07-25T13:40:03.203Z,98985.03
2023-07-25T13:42:33.602Z,98977.72
2023-07-25T13:45:02.116Z,98980.16
2023-07-25T13:47:34.573Z,98984.56
2023-07-25T13:50:04.081Z,98976.38
2023-07-25T13:52:36.449Z,98973.56
2023-07-25T13:55:06.530Z,98979.72
2023-07-25T13:57:37.445Z,98972.06
2023-07-25T14:00:09.055Z,98983.03
2023-07-25T14:02:39.065Z,98974.06
2023-07-25T14:05:09.036Z,98973.25
2023-07-25T14:07:39.365Z,98964.28
2023-07-25T14:10:09.003Z,98970.00
2023-07-25T14:12:37.837Z,98970.03
2023-07-25T14:15:07.465Z,98962.75
2023-07-25T14:17:36.250Z,98961.63
2023-07-25T14:20:05.919Z,98966.91
2023-07-25T14:22:34.801Z,98961.25
2023-07-25T14:25:05.408Z,98965.47
2023-07-25T14:27:34.188Z,98962.28
2023-07-25T14:30:03.250Z,98963.13
2023-07-25T14:32:33.897Z,98955.00
2023-07-25T14:35:02.570Z,98958.22
2023-07-25T14:37:48.204Z,98959.78
2023-07-25T14:40:22.458Z,98964.28
2023-07-25T14:42:50.956Z,98960.25
2023-07-25T14:45:19.486Z,98962.25
2023-07-25T14:47:49.128Z,98961.44
2023-07-25T14:50:17.907Z,98953.28
2023-07-25T14:52:46.503Z,98961.44
2023-07-25T14:55:15.174Z,98964.69
2023-07-25T14:57:45.197Z,98955.00
2023-07-25T15:00:15.258Z,98949.31
2023-07-25T15:02:43.773Z,98949.28
2023-07-25T15:05:12.285Z,98948.38
2023-07-25T15:07:41.319Z,98955.63
2023-07-25T15:10:10.643Z,98949.50
2023-07-25T15:12:39.381Z,98949.09
2023-07-25T15:15:10.858Z,98959.72
2023-07-25T15:17:39.585Z,98948.38
2023-07-25T15:20:11.347Z,98946.03
2023-07-25T15:22:40.396Z,98949.31
2023-07-25T15:25:09.658Z,98948.59
2023-07-25T15:27:38.299Z,98956.81
2023-07-25T15:30:07.752Z,98958.50
2023-07-25T15:32:37.971Z,98959.31
2023-07-25T15:35:10.334Z,98956.50
2023-07-25T15:37:39.047Z,98965.06
2023-07-25T15:40:09.577Z,98971.16
2023-07-25T15:42:38.134Z,98972.81
2023-07-25T15:45:07.593Z,98971.59
2023-07-25T15:47:37.861Z,98968.34
2023-07-25T15:50:07.047Z,98972.44
2023-07-25T15:52:36.593Z,98980.19
2023-07-25T15:55:05.671Z,98971.66
2023-07-25T15:57:34.357Z,98982.22
2023-07-25T16:00:02.909Z,98981.41
2023-07-25T16:02:34.032Z,98976.53
2023-07-25T16:05:04.167Z,98981.41
2023-07-25T16:07:35.646Z,98979.78
2023-07-25T16:10:06.554Z,98974.91
2023-07-25T16:12:35.653Z,98984.69
2023-07-25T16:15:04.469Z,98976.97
2023-07-25T16:17:35.334Z,98970.84
2023-07-25T16:20:06.110Z,98974.97
2023-07-25T16:22:34.647Z,98969.25
2023-07-25T16:25:04.481Z,98961.13
2023-07-25T16:27:34.279Z,98968.47
2023-07-25T16:30:03.371Z,98965.25
2023-07-25T16:32:35.063Z,98958.31
2023-07-25T16:35:05.346Z,98963.63
2023-07-25T16:37:34.944Z,98963.22
2023-07-25T16:40:05.036Z,98963.66
2023-07-25T16:42:33.994Z,98965.25
2023-07-25T16:45:04.292Z,98954.72
2023-07-25T16:47:35.634Z,98955.56
2023-07-25T16:50:05.963Z,98953.94
2023-07-25T16:52:35.969Z,98958.03
2023-07-25T16:55:06.769Z,98947.47
2023-07-25T16:57:35.474Z,98947.91
2023-07-25T17:00:05.248Z,98954.00
2023-07-25T17:02:35.150Z,98961.31
2023-07-25T17:05:05.663Z,98962.13
2023-07-25T17:07:34.735Z,98958.06
2023-07-25T17:10:03.156Z,98953.22
2023-07-25T17:12:33.653Z,98960.09
2023-07-25T17:15:02.393Z,98966.19
2023-07-25T17:17:34.129Z,98969.47
2023-07-25T17:20:03.083Z,98968.22
2023-07-25T17:22:34.350Z,98966.22
2023-07-25T17:25:02.731Z,98965.41
2023-07-25T17:27:35.513Z,98967.81
2023-07-25T17:30:06.732Z,98951.59
2023-07-25T17:32:36.079Z,98964.19
2023-07-25T17:35:07.159Z,98959.34
2023-07-25T17:37:41.114Z,98954.06
2023-07-25T17:40:10.872Z,98959.75
2023-07-25T17:42:39.337Z,98960.56
2023-07-25T17:45:08.906Z,98955.72
2023-07-25T17:47:38.104Z,98958.16
2023-07-25T17:50:07.831Z,98954.91
2023-07-25T17:52:37.731Z,98957.34
2023-07-25T17:55:07.085Z,98958.53
2023-07-25T17:57:36.121Z,98956.53
2023-07-25T18:00:04.950Z,98975.13
2023-07-25T18:02:33.631Z,98971.06
2023-07-25T18:05:02.271Z,98962.94
2023-07-25T18:07:32.198Z,98957.22
2023-07-25T18:10:02.205Z,98958.03
2023-07-25T18:12:32.839Z,98949.94
2023-07-25T18:15:01.213Z,98938.53
2023-07-25T18:17:30.508Z,98943.41
2023-07-25T18:19:59.688Z,98953.16
2023-07-25T18:22:32.388Z,98957.19
2023-07-25T18:25:02.617Z,98959.59
2023-07-25T18:27:33.680Z,98955.56
2023-07-25T18:30:02.764Z,98963.63
2023-07-25T18:32:35.118Z,98966.44
2023-07-25T18:35:04.190Z,98965.59
2023-07-25T18:37:33.405Z,98966.44
2023-07-25T18:40:03.412Z,98965.22
2023-07-25T18:42:33.778Z,98964.81
2023-07-25T18:45:02.289Z,98957.53
2023-07-25T18:47:35.628Z,98957.97
2023-07-25T18:50:05.106Z,98949.88
2023-07-25T18:52:34.797Z,98958.84
2023-07-25T18:55:04.862Z,98972.59
2023-07-25T18:57:34.617Z,98965.72
2023-07-25T19:00:03.886Z,98969.38
2023-07-25T19:02:36.182Z,98959.66
2023-07-25T19:05:04.995Z,98956.41
2023-07-25T19:07:33.587Z,98967.75
2023-07-25T19:10:02.065Z,98968.56
2023-07-25T19:12:34.380Z,98968.56
2023-07-25T19:15:03.001Z,98964.09
2023-07-25T19:17:34.787Z,98965.28
2023-07-25T19:20:03.733Z,98964.47
2023-07-25T19:22:35.520Z,98957.13
2023-07-25T19:25:04.478Z,98957.09
2023-07-25T19:27:34.757Z,98970.03
2023-07-25T19:30:04.497Z,98960.22
2023-07-25T19:32:34.825Z,98962.63
2023-07-25T19:35:05.287Z,98967.44
2023-07-25T19:37:34.604Z,98969.44
2023-07-25T19:40:04.412Z,98971.03
2023-07-25T19:42:36.365Z,98977.94
2023-07-25T19:45:06.165Z,98974.22
2023-07-25T19:47:35.374Z,98983.50
2023-07-25T19:50:03.867Z,98979.47
2023-07-25T19:52:34.500Z,98971.72
2023-07-25T19:55:02.984Z,98975.34
2023-07-25T19:57:34.374Z,98962.38
2023-07-25T20:00:02.881Z,98965.56
2023-07-25T20:02:35.423Z,98959.00
2023-07-25T20:05:03.907Z,98951.69
2023-07-25T20:07:32.451Z,98946.84
2023-07-25T20:10:00.973Z,98934.16
2023-07-25T20:12:29.538Z,98933.69
2023-07-25T20:14:59.336Z,98927.19
2023-07-25T20:17:28.805Z,98924.72
2023-07-25T20:19:57.864Z,98923.06
2023-07-25T20:22:26.310Z,98927.88
2023-07-25T20:24:54.958Z,98938.44
2023-07-25T20:27:24.251Z,98941.56
2023-07-25T20:29:53.337Z,98946.44
2023-07-25T20:32:23.247Z,98938.78
2023-07-25T20:34:52.319Z,98937.53
2023-07-25T20:37:20.750Z,98943.16
2023-07-25T20:39:49.483Z,98948.81
2023-07-25T20:42:17.874Z,98939.91
2023-07-25T20:44:46.955Z,98956.91
2023-07-25T20:47:15.885Z,98948.84
2023-07-25T20:49:45.921Z,98957.00
2023-07-25T20:52:14.803Z,98945.69
2023-07-25T20:54:44.051Z,98949.31
2023-07-25T20:57:13.176Z,98946.91
2023-07-25T20:59:41.533Z,98948.16
2023-07-25T21:02:10.022Z,98949.69
2023-07-25T21:04:38.533Z,98950.91
2023-07-25T21:07:10.462Z,98949.25
2023-07-25T21:09:38.905Z,98950.50
2023-07-25T21:12:07.899Z,98954.50
2023-07-25T21:14:36.491Z,98952.88
2023-07-25T21:17:05.410Z,98948.03
2023-07-25T21:19:33.850Z,98945.56
2023-07-25T21:22:02.396Z,98931.81
2023-07-25T21:24:32.517Z,98929.41
2023-07-25T21:27:01.120Z,98928.59
2023-07-25T21:29:30.173Z,98922.09
2023-07-25T21:31:58.772Z,98928.56
2023-07-25T21:34:27.294Z,98925.72
2023-07-25T21:36:55.820Z,98924.50
2023-07-25T21:39:24.871Z,98924.44
2023-07-25T21:41:54.583Z,98920.38
2023-07-25T21:44:22.992Z,98915.50
2023-07-25T21:46:51.408Z,98917.03
2023-07-25T21:49:20.209Z,98910.09
2023-07-25T21:51:48.723Z,98904.94
2023-07-25T21:54:17.118Z,98906.50
2023-07-25T21:56:45.585Z,98900.41
2023-07-25T21:59:15.683Z,98907.25
2023-07-25T22:01:44.734Z,98898.38
2023-07-25T22:04:13.192Z,98899.94
2023-07-25T22:06:41.640Z,98902.38
2023-07-25T22:09:09.949Z,98904.78
2023-07-25T22:11:38.992Z,98904.03
2023-07-25T22:14:07.679Z,98908.91
2023-07-25T22:16:37.537Z,98907.25
2023-07-25T22:19:05.989Z,98910.53
2023-07-25T22:21:34.666Z,98909.72
2023-07-25T22:24:03.036Z,98905.66
2023-07-25T22:26:31.648Z,98889.44
2023-07-25T22:29:00.342Z,98891.44
2023-07-25T22:31:28.772Z,98897.41
2023-07-25T22:33:59.327Z,98886.88
2023-07-25T22:36:27.880Z,98903.84
2023-07-25T22:38:56.268Z,98890.84
2023-07-25T22:41:24.936Z,98900.50
2023-07-25T22:43:53.972Z,98893.97
2023-07-25T22:46:22.366Z,98895.50
2023-07-25T22:48:50.816Z,98889.78
2023-07-25T22:51:20.725Z,98885.66
2023-07-25T22:53:49.175Z,98884.00
2023-07-25T22:56:17.698Z,98880.78
2023-07-25T22:58:46.187Z,98884.44
2023-07-25T23:01:14.603Z,98880.81
2023-07-25T23:03:43.048Z,98884.44
2023-07-25T23:06:12.089Z,98872.78
2023-07-25T23:08:41.870Z,98878.47
2023-07-25T23:11:11.348Z,98879.28
2023-07-25T23:13:39.905Z,98888.59
2023-07-25T23:16:09.544Z,98875.28
2023-07-25T23:18:38.077Z,98883.75
2023-07-25T23:21:06.848Z,98871.22
2023-07-25T23:23:35.214Z,98874.91
2023-07-25T23:26:05.467Z,98876.13
2023-07-25T23:28:34.112Z,98865.97
2023-07-25T23:31:02.965Z,98864.81
2023-07-25T23:33:31.398Z,98869.69
2023-07-25T23:35:59.880Z,98854.38
2023-07-25T23:38:28.333Z,98852.34
2023-07-25T23:40:56.762Z,98847.06
2023-07-25T23:43:26.861Z,98860.44
2023-07-25T23:45:55.264Z,98849.97
2023-07-25T23:48:24.131Z,98850.41
2023-07-25T23:50:52.798Z,98857.72
2023-07-25T23:53:21.158Z,98844.78
2023-07-25T23:55:49.554Z,98845.59
2023-07-25T23:58:18.014Z,98848.00
